COOK1: Arkansas River Nr Coolidge, KS

                                SHEF ID:       COOK1     ARKANSAS R NR COOLIDGE, KS
STATION TYPE:
Regulating: Stage = 8.00, Flow = 2028

PRECIP STAGE STAGE(2) RIV-FLOW WTR-TEMP CONDUCT BAT-LOAD
in ft ft cfs F umho/cm volt
Ccp-Rev Ccp-Rev Ccp-Rev Ccp-Rev Ccp-Rev Ccp-Rev Ccp-Rev
(America/Chicago)
08/07 00:00 0.00 3.78 3.91 207 79.38 4259 12.95
08/07 01:00 0.00 3.76 3.91 203 78.67 4279 12.95
08/07 02:00 0.00 3.76 3.92 203 77.94 4307 12.89
08/07 03:00 0.00 3.73 3.90 198 77.09 4349 12.89
08/07 04:00 0.00 3.72 3.91 196 76.26 4378 12.89
08/07 05:00 0.00 3.73 3.90 198 75.45 4396 12.89
08/07 06:00 0.00 3.69 3.87 191 74.75 4412 12.83
08/07 07:00 0.00 3.70 3.88 193 74.01 4428 12.83
08/07 08:00 0.00 3.69 3.88 191 73.56 4439 12.83
08/07 09:00 0.00 3.70 3.87 193 73.36 4450 12.89
08/07 10:00 0.00 3.68 3.87 189 73.33 4450 13.18
08/07 11:00 0.00 3.70 3.88 193 73.78 4451 13.48
08/07 12:00 0.00 3.68 3.86 189 75.15 4473 13.77
08/07 13:00 0.00 3.68 3.88 189 76.15 4489 13.65
08/07 14:00 0.00 3.65 3.87 184 77.68 4495 13.71
08/07 15:00 0.00 3.67 3.87 187 79.03 4505 13.53
08/07 16:00 0.00 3.66 3.86 186 80.44 4516 13.65
08/07 17:00 0.00 3.65 3.85 184 81.72 4529 13.48
08/07 18:00 0.00 3.65 3.84 184 82.36 4536 13.36
08/07 19:00 0.00 3.62 3.81 179 82.38 4536 13.24
08/07 20:00 0.00 3.62 3.82 179 81.73 4532 13.12
08/07 21:00 0.00 3.59 3.79 174 80.83 4529 13.07
08/07 22:00 0.00 3.60 3.79 175 80.17 4532 13.00
08/07 23:00 ---- ---- ---- ---- ---- ---- ----
Data processed at Thu 08Aug2024 04:30 GMT

Parsing this webpage?

Checkout our new Data API! CWMSDataAPI (CDA)

Timeseries IDs (TSIDs)

TSIDs used from left to right in the data table
COOL.Precip-Inc.Total.1Hour.1Hour.Ccp-Rev
COOL.Stage.Inst.1Hour.0.Ccp-Rev
COOL.Stage-Alt.Inst.1Hour.0.Ccp-Rev
COOL.Flow.Inst.1Hour.0.Ccp-Rev
COOL.Temp-Water.Inst.1Hour.0.Ccp-Rev
COOL.Cond.Inst.1Hour.0.Ccp-Rev
COOL.Volt-Battery Load.Inst.1Hour.0.Ccp-Rev

                            

All information presented herein is the property of the government of the United States of America and may be revised or deleted at any time without prior notice. Dissemination of this information without the expressed written consent of the Public Affairs Office, Tulsa District U.S. Army Corps of Engineers is strictly prohibited. These data are gathered electronically and, as presented, have NOT undergone any form of quality control. These data are NOT guaranteed to be valid or correct.